EZY75CE LEZL-LEIB
Flight info
| Callsign | EZY75CE |
|---|---|
| Flight time | 1h 5m |
| Altitude | 32000 |
| Route | BUDIT M445 LASPO Z224 VARUT |
| Aircraft | A320/M-SDE3FGHIRWY/LB1 |
Departure
| Time | 2026-03-27 15:30 |
|---|---|
| Airport | Seville Airport (LEZL) |
Arrival
| Time | 2026-03-27 16:35 |
|---|---|
| Airport | Ibiza Airport (LEIB) |
| Time | Latitude | Longitude | Altitude | Speed | Heading |
|---|---|---|---|---|---|
| 2026-03-27 15:14 | 37.42260 | -5.89902 | 121 ft | 0 kts | 344° |
| 2026-03-27 15:21 | 37.42247 | -5.89897 | 96 ft | 3 kts | 343° |
| 2026-03-27 15:21 | 37.42228 | -5.89890 | 94 ft | 3 kts | 341° |
| 2026-03-27 15:21 | 37.42203 | -5.89878 | 93 ft | 3 kts | 337° |
| 2026-03-27 15:22 | 37.42184 | -5.89867 | 95 ft | 3 kts | 329° |
| 2026-03-27 15:22 | 37.42171 | -5.89856 | 94 ft | 1 kts | 319° |
| 2026-03-27 15:22 | 37.42169 | -5.89855 | 94 ft | 1 kts | 319° |
| 2026-03-27 15:24 | 37.42172 | -5.89863 | 97 ft | 2 kts | 289° |
| 2026-03-27 15:24 | 37.42148 | -5.89902 | 96 ft | 5 kts | 226° |
| 2026-03-27 15:24 | 37.42110 | -5.89950 | 96 ft | 10 kts | 224° |
| 2026-03-27 15:25 | 37.42054 | -5.89993 | 95 ft | 9 kts | 223° |
| 2026-03-27 15:25 | 37.42045 | -5.90061 | 95 ft | 7 kts | 261° |
| 2026-03-27 15:25 | 37.42008 | -5.90093 | 96 ft | 9 kts | 197° |
| 2026-03-27 15:25 | 37.41980 | -5.90193 | 97 ft | 19 kts | 270° |
| 2026-03-27 15:26 | 37.41978 | -5.90357 | 94 ft | 19 kts | 270° |
| 2026-03-27 15:26 | 37.41978 | -5.90518 | 92 ft | 18 kts | 270° |
| 2026-03-27 15:26 | 37.41977 | -5.90666 | 91 ft | 16 kts | 270° |
| 2026-03-27 15:26 | 37.41977 | -5.90814 | 86 ft | 18 kts | 270° |
| 2026-03-27 15:27 | 37.41977 | -5.90974 | 82 ft | 18 kts | 270° |
| 2026-03-27 15:27 | 37.41976 | -5.91126 | 82 ft | 16 kts | 269° |
| 2026-03-27 15:27 | 37.41973 | -5.91234 | 81 ft | 11 kts | 265° |
| 2026-03-27 15:27 | 37.41951 | -5.91294 | 83 ft | 0 kts | 226° |
| 2026-03-27 15:28 | 37.41947 | -5.91299 | 82 ft | 5 kts | 221° |
| 2026-03-27 15:28 | 37.41886 | -5.91300 | 82 ft | 9 kts | 152° |
| 2026-03-27 15:28 | 37.41843 | -5.91244 | 83 ft | 11 kts | 123° |
| 2026-03-27 15:29 | 37.41803 | -5.91153 | 83 ft | 12 kts | 114° |
| 2026-03-27 15:29 | 37.41788 | -5.91051 | 85 ft | 11 kts | 90° |
| 2026-03-27 15:29 | 37.41789 | -5.90909 | 89 ft | 37 kts | 89° |
| 2026-03-27 15:29 | 37.41793 | -5.90291 | 93 ft | 101 kts | 90° |
| 2026-03-27 15:30 | 37.41796 | -5.89177 | 96 ft | 151 kts | 90° |
| 2026-03-27 15:30 | 37.41796 | -5.87736 | 427 ft | 168 kts | 88° |
| 2026-03-27 15:30 | 37.41786 | -5.86260 | 1080 ft | 169 kts | 91° |
| 2026-03-27 15:30 | 37.41775 | -5.84755 | 1571 ft | 181 kts | 88° |
| 2026-03-27 15:31 | 37.41790 | -5.83082 | 1791 ft | 203 kts | 87° |
| 2026-03-27 15:31 | 37.41923 | -5.81247 | 2311 ft | 217 kts | 78° |
| 2026-03-27 15:31 | 37.42272 | -5.79291 | 2711 ft | 241 kts | 76° |
| 2026-03-27 15:31 | 37.42630 | -5.77166 | 3371 ft | 252 kts | 77° |
| 2026-03-27 15:32 | 37.43161 | -5.75058 | 4245 ft | 255 kts | 67° |
| 2026-03-27 15:32 | 37.43858 | -5.72999 | 5133 ft | 257 kts | 65° |
| 2026-03-27 15:32 | 37.44582 | -5.70940 | 6036 ft | 258 kts | 65° |
| 2026-03-27 15:32 | 37.45316 | -5.68874 | 6874 ft | 260 kts | 65° |
| 2026-03-27 15:33 | 37.46059 | -5.66786 | 7662 ft | 263 kts | 64° |
| 2026-03-27 15:33 | 37.46809 | -5.64671 | 8440 ft | 267 kts | 64° |
| 2026-03-27 15:33 | 37.47567 | -5.62521 | 9227 ft | 271 kts | 64° |
| 2026-03-27 15:33 | 37.48333 | -5.60338 | 10000 ft | 275 kts | 64° |
| 2026-03-27 15:34 | 37.49124 | -5.58087 | 10440 ft | 291 kts | 64° |
| 2026-03-27 15:34 | 37.49974 | -5.55662 | 10614 ft | 315 kts | 64° |
| 2026-03-27 15:34 | 37.50888 | -5.53049 | 10787 ft | 336 kts | 65° |
| 2026-03-27 15:34 | 37.51830 | -5.50344 | 11267 ft | 345 kts | 65° |
| 2026-03-27 15:35 | 37.52799 | -5.47559 | 11881 ft | 349 kts | 65° |
| 2026-03-27 15:35 | 37.53758 | -5.44795 | 12864 ft | 336 kts | 65° |
| 2026-03-27 15:35 | 37.54661 | -5.42185 | 14090 ft | 313 kts | 65° |
| 2026-03-27 15:35 | 37.55491 | -5.39779 | 14948 ft | 285 kts | 65° |
| 2026-03-27 15:36 | 37.56248 | -5.37582 | 15630 ft | 262 kts | 64° |
| 2026-03-27 15:36 | 37.56940 | -5.35576 | 16395 ft | 238 kts | 64° |
| 2026-03-27 15:36 | 37.57568 | -5.33762 | 17003 ft | 218 kts | 64° |
| 2026-03-27 15:36 | 37.58175 | -5.32017 | 17152 ft | 217 kts | 64° |
| 2026-03-27 15:37 | 37.58784 | -5.30274 | 17284 ft | 218 kts | 64° |
| 2026-03-27 15:37 | 37.59395 | -5.28522 | 17403 ft | 219 kts | 64° |
| 2026-03-27 15:37 | 37.59997 | -5.26694 | 17495 ft | 233 kts | 68° |
| 2026-03-27 15:37 | 37.60472 | -5.24645 | 17610 ft | 254 kts | 75° |
| 2026-03-27 15:38 | 37.60760 | -5.22389 | 17750 ft | 274 kts | 82° |
| 2026-03-27 15:38 | 37.60930 | -5.19906 | 17894 ft | 294 kts | 82° |
| 2026-03-27 15:38 | 37.61117 | -5.17248 | 18034 ft | 313 kts | 83° |
| 2026-03-27 15:38 | 37.61317 | -5.14433 | 18174 ft | 331 kts | 83° |
| 2026-03-27 15:39 | 37.61528 | -5.11467 | 18307 ft | 348 kts | 83° |
| 2026-03-27 15:39 | 37.61749 | -5.08358 | 18425 ft | 364 kts | 83° |
| 2026-03-27 15:39 | 37.61979 | -5.05104 | 18542 ft | 379 kts | 83° |
| 2026-03-27 15:39 | 37.62214 | -5.01732 | 18676 ft | 393 kts | 83° |
| 2026-03-27 15:40 | 37.62449 | -4.98269 | 19008 ft | 399 kts | 83° |
| 2026-03-27 15:40 | 37.62687 | -4.94771 | 19454 ft | 402 kts | 83° |
| 2026-03-27 15:40 | 37.62926 | -4.91240 | 19886 ft | 405 kts | 83° |
| 2026-03-27 15:40 | 37.63164 | -4.87691 | 20340 ft | 407 kts | 83° |
| 2026-03-27 15:41 | 37.63403 | -4.84123 | 20794 ft | 409 kts | 83° |
| 2026-03-27 15:41 | 37.63643 | -4.80536 | 21234 ft | 412 kts | 83° |
| 2026-03-27 15:41 | 37.63882 | -4.76974 | 21674 ft | 414 kts | 83° |
| 2026-03-27 15:41 | 37.64126 | -4.73352 | 22112 ft | 416 kts | 83° |
| 2026-03-27 15:42 | 37.64371 | -4.69700 | 22551 ft | 418 kts | 83° |
| 2026-03-27 15:42 | 37.64617 | -4.66044 | 22984 ft | 420 kts | 83° |
| 2026-03-27 15:42 | 37.64866 | -4.62356 | 23405 ft | 422 kts | 83° |
| 2026-03-27 15:42 | 37.65114 | -4.58655 | 23767 ft | 424 kts | 83° |
| 2026-03-27 15:43 | 37.65602 | -4.51204 | 24455 ft | 428 kts | 83° |
| 2026-03-27 15:43 | 37.65843 | -4.47454 | 24789 ft | 429 kts | 83° |
| 2026-03-27 15:43 | 37.66082 | -4.43692 | 25122 ft | 431 kts | 83° |
| 2026-03-27 15:44 | 37.66323 | -4.39915 | 25456 ft | 433 kts | 83° |
| 2026-03-27 15:44 | 37.66567 | -4.36115 | 25787 ft | 435 kts | 83° |
| 2026-03-27 15:44 | 37.66809 | -4.32303 | 26110 ft | 436 kts | 83° |
| 2026-03-27 15:44 | 37.67048 | -4.28482 | 26424 ft | 438 kts | 83° |
| 2026-03-27 15:45 | 37.67284 | -4.24685 | 26727 ft | 440 kts | 83° |
| 2026-03-27 15:45 | 37.67525 | -4.20828 | 27020 ft | 441 kts | 83° |
| 2026-03-27 15:45 | 37.67767 | -4.16954 | 27304 ft | 443 kts | 83° |
| 2026-03-27 15:45 | 37.68008 | -4.13076 | 27582 ft | 445 kts | 83° |
| 2026-03-27 15:46 | 37.68248 | -4.09177 | 27857 ft | 446 kts | 83° |
| 2026-03-27 15:46 | 37.68488 | -4.05265 | 28133 ft | 448 kts | 83° |
| 2026-03-27 15:46 | 37.68727 | -4.01336 | 28403 ft | 449 kts | 84° |
| 2026-03-27 15:46 | 37.68963 | -3.97400 | 28668 ft | 451 kts | 84° |
| 2026-03-27 15:47 | 37.69197 | -3.93455 | 29036 ft | 450 kts | 84° |
| 2026-03-27 15:47 | 37.69428 | -3.89521 | 29424 ft | 449 kts | 84° |
| 2026-03-27 15:47 | 37.69659 | -3.85595 | 29822 ft | 447 kts | 84° |
| 2026-03-27 15:47 | 37.69891 | -3.81682 | 30196 ft | 446 kts | 84° |
| 2026-03-27 15:48 | 37.70123 | -3.77777 | 30495 ft | 446 kts | 84° |
| 2026-03-27 15:48 | 37.70356 | -3.73874 | 30820 ft | 445 kts | 84° |
| 2026-03-27 15:48 | 37.70584 | -3.69977 | 31135 ft | 444 kts | 84° |
| 2026-03-27 15:48 | 37.70808 | -3.66094 | 31461 ft | 443 kts | 84° |
| 2026-03-27 15:49 | 37.71026 | -3.62263 | 31782 ft | 442 kts | 84° |
| 2026-03-27 15:49 | 37.71245 | -3.58391 | 31978 ft | 442 kts | 84° |
| 2026-03-27 15:49 | 37.71678 | -3.50654 | 32018 ft | 441 kts | 84° |
| 2026-03-27 15:50 | 37.72115 | -3.42915 | 32029 ft | 442 kts | 83° |
| 2026-03-27 15:50 | 37.72543 | -3.35164 | 32016 ft | 443 kts | 84° |
| 2026-03-27 15:51 | 37.72969 | -3.27399 | 32016 ft | 443 kts | 84° |
| 2026-03-27 15:51 | 37.73386 | -3.19631 | 32015 ft | 443 kts | 84° |
| 2026-03-27 15:52 | 37.73803 | -3.11865 | 32012 ft | 443 kts | 84° |
| 2026-03-27 15:52 | 37.74216 | -3.04106 | 32018 ft | 443 kts | 83° |
| 2026-03-27 15:53 | 37.74621 | -2.96338 | 32005 ft | 444 kts | 84° |
| 2026-03-27 15:53 | 37.75010 | -2.88603 | 32001 ft | 444 kts | 84° |
| 2026-03-27 15:54 | 37.76196 | -2.81027 | 31991 ft | 438 kts | 66° |
| 2026-03-27 15:54 | 37.79247 | -2.74447 | 32001 ft | 433 kts | 48° |
| 2026-03-27 15:55 | 37.83382 | -2.68910 | 32001 ft | 433 kts | 45° |
| 2026-03-27 15:55 | 37.87542 | -2.63388 | 32017 ft | 433 kts | 45° |
| 2026-03-27 15:56 | 37.91697 | -2.57869 | 32022 ft | 432 kts | 45° |
| 2026-03-27 15:56 | 37.95842 | -2.52348 | 32021 ft | 433 kts | 45° |
| 2026-03-27 15:57 | 37.99953 | -2.46855 | 32026 ft | 432 kts | 45° |
| 2026-03-27 15:57 | 38.04086 | -2.41320 | 32027 ft | 432 kts | 45° |
| 2026-03-27 15:58 | 38.08224 | -2.35778 | 32026 ft | 432 kts | 45° |
| 2026-03-27 15:58 | 38.12360 | -2.30230 | 32026 ft | 432 kts | 45° |
| 2026-03-27 15:59 | 38.16488 | -2.24676 | 32047 ft | 432 kts | 45° |
| 2026-03-27 15:59 | 38.20604 | -2.19119 | 32033 ft | 432 kts | 47° |
| 2026-03-27 16:00 | 38.24357 | -2.13134 | 32045 ft | 433 kts | 50° |
| 2026-03-27 16:00 | 38.28081 | -2.07114 | 32044 ft | 433 kts | 50° |
| 2026-03-27 16:01 | 38.31787 | -2.01129 | 32043 ft | 433 kts | 50° |
| 2026-03-27 16:01 | 38.35512 | -1.95096 | 32044 ft | 433 kts | 50° |
| 2026-03-27 16:02 | 38.39232 | -1.89059 | 32055 ft | 433 kts | 50° |
| 2026-03-27 16:02 | 38.42949 | -1.83015 | 32054 ft | 433 kts | 50° |
| 2026-03-27 16:03 | 38.46663 | -1.76965 | 32049 ft | 433 kts | 50° |
| 2026-03-27 16:03 | 38.50379 | -1.70911 | 32056 ft | 433 kts | 50° |
| 2026-03-27 16:04 | 38.54088 | -1.64854 | 32049 ft | 433 kts | 50° |
| 2026-03-27 16:04 | 38.57762 | -1.58825 | 32048 ft | 432 kts | 50° |
| 2026-03-27 16:05 | 38.61451 | -1.52753 | 32042 ft | 432 kts | 50° |
| 2026-03-27 16:05 | 38.65143 | -1.46678 | 32046 ft | 432 kts | 49° |
| 2026-03-27 16:06 | 38.68828 | -1.40602 | 32047 ft | 432 kts | 50° |
| 2026-03-27 16:06 | 38.72506 | -1.34529 | 32042 ft | 431 kts | 49° |
| 2026-03-27 16:07 | 38.76186 | -1.28460 | 32034 ft | 431 kts | 49° |
| 2026-03-27 16:07 | 38.79859 | -1.22388 | 32031 ft | 431 kts | 50° |
| 2026-03-27 16:08 | 38.83528 | -1.16295 | 32030 ft | 431 kts | 50° |
| 2026-03-27 16:08 | 38.87193 | -1.10202 | 32040 ft | 431 kts | 49° |
| 2026-03-27 16:09 | 38.90849 | -1.04107 | 32034 ft | 431 kts | 49° |
| 2026-03-27 16:09 | 38.94480 | -0.98040 | 32025 ft | 431 kts | 49° |
| 2026-03-27 16:10 | 38.98148 | -0.91927 | 32024 ft | 432 kts | 49° |
| 2026-03-27 16:10 | 39.01811 | -0.85788 | 32028 ft | 432 kts | 50° |
| 2026-03-27 16:11 | 39.05458 | -0.79641 | 32026 ft | 432 kts | 49° |
| 2026-03-27 16:11 | 39.09682 | -0.74253 | 32033 ft | 427 kts | 36° |
| 2026-03-27 16:12 | 39.14272 | -0.69392 | 32023 ft | 428 kts | 37° |
| 2026-03-27 16:12 | 39.18857 | -0.64495 | 32022 ft | 429 kts | 37° |
| 2026-03-27 16:13 | 39.23271 | -0.59382 | 32032 ft | 433 kts | 47° |
| 2026-03-27 16:13 | 39.24931 | -0.56123 | 32038 ft | 439 kts | 60° |
| 2026-03-27 16:13 | 39.26013 | -0.52419 | 32030 ft | 445 kts | 72° |
| 2026-03-27 16:14 | 39.26438 | -0.48437 | 32027 ft | 452 kts | 85° |
| 2026-03-27 16:14 | 39.26144 | -0.44367 | 32032 ft | 460 kts | 98° |
| 2026-03-27 16:14 | 39.24770 | -0.37698 | 31572 ft | 465 kts | 101° |
| 2026-03-27 16:15 | 39.23917 | -0.33635 | 30413 ft | 473 kts | 101° |
| 2026-03-27 16:15 | 39.23051 | -0.29506 | 29218 ft | 480 kts | 102° |
| 2026-03-27 16:15 | 39.22176 | -0.25338 | 28056 ft | 483 kts | 102° |
| 2026-03-27 16:15 | 39.21292 | -0.21138 | 27100 ft | 483 kts | 102° |
| 2026-03-27 16:16 | 39.20415 | -0.16993 | 26428 ft | 477 kts | 102° |
| 2026-03-27 16:16 | 39.19543 | -0.12881 | 25668 ft | 472 kts | 102° |
| 2026-03-27 16:16 | 39.18681 | -0.08814 | 24941 ft | 468 kts | 102° |
| 2026-03-27 16:16 | 39.17829 | -0.04787 | 24224 ft | 463 kts | 103° |
| 2026-03-27 16:17 | 39.16982 | -0.00798 | 23505 ft | 460 kts | 103° |
| 2026-03-27 16:17 | 39.16138 | 0.03164 | 22762 ft | 456 kts | 102° |
| 2026-03-27 16:17 | 39.15304 | 0.07074 | 22109 ft | 450 kts | 102° |
| 2026-03-27 16:17 | 39.14478 | 0.10945 | 21453 ft | 446 kts | 102° |
| 2026-03-27 16:18 | 39.13669 | 0.14724 | 20861 ft | 441 kts | 102° |
| 2026-03-27 16:18 | 39.12858 | 0.18508 | 20269 ft | 436 kts | 102° |
| 2026-03-27 16:18 | 39.12052 | 0.22255 | 19691 ft | 431 kts | 102° |
| 2026-03-27 16:18 | 39.11257 | 0.25955 | 19151 ft | 426 kts | 102° |
| 2026-03-27 16:19 | 39.10471 | 0.29608 | 18627 ft | 421 kts | 102° |
| 2026-03-27 16:19 | 39.09689 | 0.33225 | 18084 ft | 416 kts | 102° |
| 2026-03-27 16:19 | 39.08916 | 0.36784 | 17573 ft | 410 kts | 102° |
| 2026-03-27 16:19 | 39.08153 | 0.40297 | 17056 ft | 405 kts | 102° |
| 2026-03-27 16:20 | 39.07402 | 0.43768 | 16568 ft | 400 kts | 101° |
| 2026-03-27 16:20 | 39.06660 | 0.47194 | 16064 ft | 396 kts | 101° |
| 2026-03-27 16:20 | 39.05921 | 0.50596 | 15566 ft | 392 kts | 101° |
| 2026-03-27 16:20 | 39.05184 | 0.53970 | 15047 ft | 390 kts | 101° |
| 2026-03-27 16:21 | 39.04453 | 0.57310 | 14533 ft | 387 kts | 101° |
| 2026-03-27 16:21 | 39.03726 | 0.60634 | 13996 ft | 385 kts | 101° |
| 2026-03-27 16:21 | 39.03005 | 0.63938 | 13511 ft | 381 kts | 101° |
| 2026-03-27 16:21 | 39.02259 | 0.67141 | 13374 ft | 369 kts | 106° |
| 2026-03-27 16:22 | 39.01190 | 0.70043 | 13237 ft | 359 kts | 113° |
| 2026-03-27 16:22 | 39.00042 | 0.72832 | 13112 ft | 347 kts | 113° |
| 2026-03-27 16:22 | 38.98935 | 0.75525 | 12979 ft | 335 kts | 113° |
| 2026-03-27 16:22 | 38.97867 | 0.78136 | 12868 ft | 325 kts | 112° |
| 2026-03-27 16:23 | 38.96832 | 0.80672 | 12738 ft | 315 kts | 112° |
| 2026-03-27 16:23 | 38.95830 | 0.83130 | 12613 ft | 306 kts | 112° |
| 2026-03-27 16:23 | 38.94854 | 0.85523 | 12484 ft | 298 kts | 112° |
| 2026-03-27 16:23 | 38.93908 | 0.87843 | 12355 ft | 289 kts | 112° |
| 2026-03-27 16:24 | 38.92985 | 0.90101 | 12217 ft | 281 kts | 112° |
| 2026-03-27 16:24 | 38.92081 | 0.92308 | 11988 ft | 278 kts | 112° |
| 2026-03-27 16:24 | 38.91188 | 0.94498 | 11714 ft | 276 kts | 112° |
| 2026-03-27 16:24 | 38.90249 | 0.96638 | 11350 ft | 276 kts | 121° |
| 2026-03-27 16:25 | 38.88913 | 0.98419 | 10874 ft | 280 kts | 140° |
| 2026-03-27 16:25 | 38.87228 | 0.99689 | 10380 ft | 282 kts | 148° |
| 2026-03-27 16:25 | 38.83603 | 1.01440 | 9162 ft | 288 kts | 184° |
| 2026-03-27 16:26 | 38.81772 | 1.00588 | 8718 ft | 277 kts | 222° |
| 2026-03-27 16:26 | 38.80640 | 0.98724 | 8431 ft | 261 kts | 246° |
| 2026-03-27 16:26 | 38.79798 | 0.96702 | 8154 ft | 260 kts | 245° |
| 2026-03-27 16:26 | 38.78749 | 0.94808 | 7874 ft | 262 kts | 228° |
| 2026-03-27 16:27 | 38.77416 | 0.93203 | 7606 ft | 262 kts | 225° |
| 2026-03-27 16:27 | 38.76010 | 0.91729 | 7338 ft | 261 kts | 210° |
| 2026-03-27 16:27 | 38.74304 | 0.91035 | 7131 ft | 258 kts | 183° |
| 2026-03-27 16:27 | 38.72541 | 0.91289 | 7085 ft | 255 kts | 158° |
| 2026-03-27 16:28 | 38.71054 | 0.92452 | 7088 ft | 248 kts | 127° |
| 2026-03-27 16:28 | 38.70240 | 0.94350 | 6753 ft | 243 kts | 95° |
| 2026-03-27 16:28 | 38.70335 | 0.96420 | 6287 ft | 229 kts | 66° |
| 2026-03-27 16:28 | 38.71048 | 0.98182 | 5928 ft | 227 kts | 57° |
| 2026-03-27 16:29 | 38.71829 | 0.99950 | 5614 ft | 228 kts | 57° |
| 2026-03-27 16:29 | 38.72605 | 1.01724 | 5310 ft | 228 kts | 58° |
| 2026-03-27 16:29 | 38.73309 | 1.03546 | 4994 ft | 229 kts | 62° |
| 2026-03-27 16:29 | 38.74002 | 1.05379 | 4687 ft | 229 kts | 60° |
| 2026-03-27 16:30 | 38.74744 | 1.07188 | 4354 ft | 229 kts | 59° |
| 2026-03-27 16:30 | 38.75497 | 1.08987 | 4051 ft | 229 kts | 59° |
| 2026-03-27 16:30 | 38.76250 | 1.10787 | 3742 ft | 230 kts | 59° |
| 2026-03-27 16:30 | 38.77005 | 1.12595 | 3435 ft | 230 kts | 60° |
| 2026-03-27 16:31 | 38.77751 | 1.14382 | 3135 ft | 230 kts | 60° |
| 2026-03-27 16:31 | 38.78494 | 1.16164 | 2996 ft | 222 kts | 61° |
| 2026-03-27 16:31 | 38.79199 | 1.17853 | 3012 ft | 209 kts | 61° |
| 2026-03-27 16:31 | 38.79870 | 1.19464 | 3031 ft | 196 kts | 61° |
| 2026-03-27 16:32 | 38.80478 | 1.20925 | 2996 ft | 174 kts | 61° |
| 2026-03-27 16:32 | 38.81024 | 1.22237 | 3000 ft | 162 kts | 61° |
| 2026-03-27 16:32 | 38.81540 | 1.23478 | 3027 ft | 154 kts | 61° |
| 2026-03-27 16:32 | 38.82025 | 1.24672 | 2755 ft | 151 kts | 62° |
| 2026-03-27 16:33 | 38.82491 | 1.25884 | 2302 ft | 154 kts | 62° |
| 2026-03-27 16:33 | 38.83017 | 1.27145 | 1674 ft | 165 kts | 61° |
| 2026-03-27 16:33 | 38.83606 | 1.28447 | 1081 ft | 168 kts | 59° |
| 2026-03-27 16:33 | 38.84167 | 1.29661 | 936 ft | 151 kts | 62° |
| 2026-03-27 16:34 | 38.84619 | 1.30820 | 853 ft | 145 kts | 65° |
| 2026-03-27 16:34 | 38.85076 | 1.31959 | 713 ft | 142 kts | 63° |
| 2026-03-27 16:34 | 38.85537 | 1.33072 | 553 ft | 140 kts | 64° |
| 2026-03-27 16:34 | 38.85990 | 1.34175 | 364 ft | 139 kts | 64° |
| 2026-03-27 16:35 | 38.86441 | 1.35265 | 201 ft | 138 kts | 64° |
| 2026-03-27 16:35 | 38.86885 | 1.36343 | 33 ft | 132 kts | 64° |
| 2026-03-27 16:35 | 38.87240 | 1.37203 | 30 ft | 84 kts | 62° |
| 2026-03-27 16:35 | 38.87417 | 1.37632 | 32 ft | 33 kts | 60° |
| 2026-03-27 16:36 | 38.87559 | 1.37833 | 33 ft | 26 kts | 36° |
| 2026-03-27 16:36 | 38.87649 | 1.37905 | 34 ft | 1 kts | 28° |
| 2026-03-27 16:36 | 38.87650 | 1.37906 | 34 ft | 1 kts | 26° |
| 2026-03-27 16:36 | 38.87653 | 1.37907 | 34 ft | 0 kts | 17° |